sensor_id;sensor_type;location;lat;lon;timestamp;P1;durP1;ratioP1;P2;durP2;ratioP2
45970;SDS011;31681;48.982;8.394;2024-02-21T00:01:35;9.85;;;4.45;;
45970;SDS011;31681;48.982;8.394;2024-02-21T00:04:01;9.00;;;3.63;;
45970;SDS011;31681;48.982;8.394;2024-02-21T00:06:27;8.90;;;4.32;;
45970;SDS011;31681;48.982;8.394;2024-02-21T00:08:52;8.60;;;4.03;;
45970;SDS011;31681;48.982;8.394;2024-02-21T00:11:17;9.82;;;3.70;;
45970;SDS011;31681;48.982;8.394;2024-02-21T00:13:43;12.10;;;4.30;;
45970;SDS011;31681;48.982;8.394;2024-02-21T00:16:08;8.82;;;3.67;;
45970;SDS011;31681;48.982;8.394;2024-02-21T00:18:34;11.93;;;3.60;;
45970;SDS011;31681;48.982;8.394;2024-02-21T00:20:59;11.88;;;4.18;;
45970;SDS011;31681;48.982;8.394;2024-02-21T00:23:27;10.57;;;4.20;;
45970;SDS011;31681;48.982;8.394;2024-02-21T00:25:52;10.68;;;4.47;;
45970;SDS011;31681;48.982;8.394;2024-02-21T00:28:17;11.98;;;4.00;;
45970;SDS011;31681;48.982;8.394;2024-02-21T00:30:43;10.95;;;3.90;;
45970;SDS011;31681;48.982;8.394;2024-02-21T00:33:08;14.25;;;3.85;;
45970;SDS011;31681;48.982;8.394;2024-02-21T00:35:33;13.63;;;4.00;;
45970;SDS011;31681;48.982;8.394;2024-02-21T00:37:59;8.23;;;3.42;;
45970;SDS011;31681;48.982;8.394;2024-02-21T00:40:24;8.35;;;3.10;;
45970;SDS011;31681;48.982;8.394;2024-02-21T00:42:50;8.82;;;3.63;;
45970;SDS011;31681;48.982;8.394;2024-02-21T00:45:15;7.13;;;3.47;;
45970;SDS011;31681;48.982;8.394;2024-02-21T00:47:41;10.00;;;3.72;;
45970;SDS011;31681;48.982;8.394;2024-02-21T00:50:06;8.13;;;2.92;;
45970;SDS011;31681;48.982;8.394;2024-02-21T00:52:32;10.98;;;3.55;;
45970;SDS011;31681;48.982;8.394;2024-02-21T00:54:58;5.90;;;2.88;;
45970;SDS011;31681;48.982;8.394;2024-02-21T00:57:23;8.32;;;3.30;;
45970;SDS011;31681;48.982;8.394;2024-02-21T00:59:48;6.60;;;3.20;;
45970;SDS011;31681;48.982;8.394;2024-02-21T01:02:14;9.65;;;2.90;;
45970;SDS011;31681;48.982;8.394;2024-02-21T01:04:39;9.35;;;3.25;;
45970;SDS011;31681;48.982;8.394;2024-02-21T01:07:04;13.95;;;3.47;;
45970;SDS011;31681;48.982;8.394;2024-02-21T01:09:30;9.43;;;3.28;;
45970;SDS011;31681;48.982;8.394;2024-02-21T01:11:55;9.25;;;3.05;;
45970;SDS011;31681;48.982;8.394;2024-02-21T01:14:20;6.95;;;3.28;;
45970;SDS011;31681;48.982;8.394;2024-02-21T01:16:46;11.32;;;3.58;;
45970;SDS011;31681;48.982;8.394;2024-02-21T01:19:11;10.00;;;3.35;;
45970;SDS011;31681;48.982;8.394;2024-02-21T01:21:36;11.15;;;3.58;;
45970;SDS011;31681;48.982;8.394;2024-02-21T01:24:02;7.90;;;3.28;;
45970;SDS011;31681;48.982;8.394;2024-02-21T01:26:27;12.90;;;3.78;;
45970;SDS011;31681;48.982;8.394;2024-02-21T01:28:52;10.15;;;3.10;;
45970;SDS011;31681;48.982;8.394;2024-02-21T01:31:18;7.05;;;3.05;;
45970;SDS011;31681;48.982;8.394;2024-02-21T01:33:43;8.90;;;3.35;;
45970;SDS011;31681;48.982;8.394;2024-02-21T01:36:08;7.95;;;3.10;;
45970;SDS011;31681;48.982;8.394;2024-02-21T01:38:34;9.90;;;3.40;;
45970;SDS011;31681;48.982;8.394;2024-02-21T01:40:59;9.70;;;3.13;;
45970;SDS011;31681;48.982;8.394;2024-02-21T01:43:25;13.50;;;3.70;;
45970;SDS011;31681;48.982;8.394;2024-02-21T01:45:50;8.38;;;3.22;;
45970;SDS011;31681;48.982;8.394;2024-02-21T01:48:18;10.88;;;3.28;;
45970;SDS011;31681;48.982;8.394;2024-02-21T01:50:44;11.30;;;3.17;;
45970;SDS011;31681;48.982;8.394;2024-02-21T01:53:09;11.13;;;3.50;;
45970;SDS011;31681;48.982;8.394;2024-02-21T01:55:35;6.63;;;3.60;;
45970;SDS011;31681;48.982;8.394;2024-02-21T01:58:01;7.95;;;3.83;;
45970;SDS011;31681;48.982;8.394;2024-02-21T02:00:26;7.43;;;3.40;;
45970;SDS011;31681;48.982;8.394;2024-02-21T02:03:02;9.73;;;3.10;;
45970;SDS011;31681;48.982;8.394;2024-02-21T02:05:27;8.10;;;3.17;;
45970;SDS011;31681;48.982;8.394;2024-02-21T02:07:53;11.70;;;3.63;;
45970;SDS011;31681;48.982;8.394;2024-02-21T02:10:19;10.27;;;3.40;;
45970;SDS011;31681;48.982;8.394;2024-02-21T02:12:44;8.70;;;3.57;;
45970;SDS011;31681;48.982;8.394;2024-02-21T02:15:09;7.43;;;3.60;;
45970;SDS011;31681;48.982;8.394;2024-02-21T02:17:35;11.27;;;3.73;;
45970;SDS011;31681;48.982;8.394;2024-02-21T02:20:00;9.70;;;3.73;;
45970;SDS011;31681;48.982;8.394;2024-02-21T02:22:28;11.40;;;4.73;;
45970;SDS011;31681;48.982;8.394;2024-02-21T02:24:54;10.10;;;3.57;;
45970;SDS011;31681;48.982;8.394;2024-02-21T02:27:19;11.57;;;3.70;;
45970;SDS011;31681;48.982;8.394;2024-02-21T02:29:45;12.13;;;4.13;;
45970;SDS011;31681;48.982;8.394;2024-02-21T02:32:10;10.40;;;4.30;;
45970;SDS011;31681;48.982;8.394;2024-02-21T02:34:36;12.63;;;4.00;;
45970;SDS011;31681;48.982;8.394;2024-02-21T02:37:01;11.37;;;3.63;;
45970;SDS011;31681;48.982;8.394;2024-02-21T02:39:26;14.40;;;4.43;;
45970;SDS011;31681;48.982;8.394;2024-02-21T02:41:52;9.03;;;4.00;;
45970;SDS011;31681;48.982;8.394;2024-02-21T02:44:17;7.87;;;3.93;;
45970;SDS011;31681;48.982;8.394;2024-02-21T02:46:42;8.40;;;4.03;;
45970;SDS011;31681;48.982;8.394;2024-02-21T02:49:08;11.50;;;3.70;;
45970;SDS011;31681;48.982;8.394;2024-02-21T02:51:33;12.87;;;4.67;;
45970;SDS011;31681;48.982;8.394;2024-02-21T02:53:59;11.60;;;3.50;;
45970;SDS011;31681;48.982;8.394;2024-02-21T02:56:24;8.80;;;3.80;;
45970;SDS011;31681;48.982;8.394;2024-02-21T02:58:49;9.47;;;4.20;;
45970;SDS011;31681;48.982;8.394;2024-02-21T03:01:15;8.20;;;4.00;;
45970;SDS011;31681;48.982;8.394;2024-02-21T03:03:40;12.30;;;3.60;;
45970;SDS011;31681;48.982;8.394;2024-02-21T03:06:05;8.57;;;3.30;;
45970;SDS011;31681;48.982;8.394;2024-02-21T03:08:31;12.73;;;3.67;;
45970;SDS011;31681;48.982;8.394;2024-02-21T03:10:57;11.50;;;4.07;;
45970;SDS011;31681;48.982;8.394;2024-02-21T03:13:23;6.25;;;3.50;;
45970;SDS011;31681;48.982;8.394;2024-02-21T03:15:48;7.43;;;3.55;;
45970;SDS011;31681;48.982;8.394;2024-02-21T03:18:13;10.00;;;3.80;;
45970;SDS011;31681;48.982;8.394;2024-02-21T03:20:39;11.25;;;3.60;;
45970;SDS011;31681;48.982;8.394;2024-02-21T03:23:04;10.53;;;3.77;;
45970;SDS011;31681;48.982;8.394;2024-02-21T03:25:30;7.38;;;2.97;;
45970;SDS011;31681;48.982;8.394;2024-02-21T03:27:55;5.43;;;3.30;;
45970;SDS011;31681;48.982;8.394;2024-02-21T03:30:20;6.03;;;3.30;;
45970;SDS011;31681;48.982;8.394;2024-02-21T03:32:46;9.07;;;3.93;;
45970;SDS011;31681;48.982;8.394;2024-02-21T03:35:11;7.60;;;3.20;;
45970;SDS011;31681;48.982;8.394;2024-02-21T03:37:36;8.43;;;3.70;;
45970;SDS011;31681;48.982;8.394;2024-02-21T03:40:02;10.70;;;3.40;;
45970;SDS011;31681;48.982;8.394;2024-02-21T03:42:27;9.70;;;3.80;;
45970;SDS011;31681;48.982;8.394;2024-02-21T03:44:55;11.13;;;3.60;;
45970;SDS011;31681;48.982;8.394;2024-02-21T03:47:20;12.17;;;3.67;;
45970;SDS011;31681;48.982;8.394;2024-02-21T03:49:45;7.87;;;3.60;;
45970;SDS011;31681;48.982;8.394;2024-02-21T03:52:11;7.60;;;3.87;;
45970;SDS011;31681;48.982;8.394;2024-02-21T03:54:36;12.27;;;3.73;;
45970;SDS011;31681;48.982;8.394;2024-02-21T03:57:01;8.47;;;3.90;;
45970;SDS011;31681;48.982;8.394;2024-02-21T03:59:27;10.93;;;4.20;;
45970;SDS011;31681;48.982;8.394;2024-02-21T04:01:53;9.17;;;3.70;;
45970;SDS011;31681;48.982;8.394;2024-02-21T04:04:18;10.47;;;3.73;;
45970;SDS011;31681;48.982;8.394;2024-02-21T04:06:47;12.60;;;4.37;;
45970;SDS011;31681;48.982;8.394;2024-02-21T04:09:13;12.33;;;4.37;;
45970;SDS011;31681;48.982;8.394;2024-02-21T04:11:38;14.30;;;4.27;;
45970;SDS011;31681;48.982;8.394;2024-02-21T04:14:04;9.43;;;4.17;;
45970;SDS011;31681;48.982;8.394;2024-02-21T04:16:29;9.87;;;4.10;;
45970;SDS011;31681;48.982;8.394;2024-02-21T04:18:54;10.83;;;3.90;;
45970;SDS011;31681;48.982;8.394;2024-02-21T04:21:19;8.13;;;3.67;;
45970;SDS011;31681;48.982;8.394;2024-02-21T04:23:45;8.40;;;3.80;;
45970;SDS011;31681;48.982;8.394;2024-02-21T04:26:10;7.73;;;3.17;;
45970;SDS011;31681;48.982;8.394;2024-02-21T04:28:35;8.30;;;3.80;;
45970;SDS011;31681;48.982;8.394;2024-02-21T04:31:01;8.37;;;3.60;;
45970;SDS011;31681;48.982;8.394;2024-02-21T04:33:26;10.70;;;4.53;;
45970;SDS011;31681;48.982;8.394;2024-02-21T04:35:51;11.23;;;3.83;;
45970;SDS011;31681;48.982;8.394;2024-02-21T04:38:19;12.37;;;4.10;;
45970;SDS011;31681;48.982;8.394;2024-02-21T04:40:45;8.33;;;4.03;;
45970;SDS011;31681;48.982;8.394;2024-02-21T04:43:10;8.37;;;3.37;;
45970;SDS011;31681;48.982;8.394;2024-02-21T04:45:35;8.43;;;3.80;;
45970;SDS011;31681;48.982;8.394;2024-02-21T04:48:01;8.87;;;3.43;;
45970;SDS011;31681;48.982;8.394;2024-02-21T04:50:26;7.43;;;4.03;;
45970;SDS011;31681;48.982;8.394;2024-02-21T04:52:52;10.30;;;4.07;;
45970;SDS011;31681;48.982;8.394;2024-02-21T04:55:17;6.50;;;3.70;;
45970;SDS011;31681;48.982;8.394;2024-02-21T04:57:43;10.17;;;4.03;;
45970;SDS011;31681;48.982;8.394;2024-02-21T05:00:08;12.40;;;4.37;;
45970;SDS011;31681;48.982;8.394;2024-02-21T05:02:34;10.23;;;4.00;;
45970;SDS011;31681;48.982;8.394;2024-02-21T05:04:59;9.23;;;3.53;;
45970;SDS011;31681;48.982;8.394;2024-02-21T05:07:25;9.77;;;3.87;;
45970;SDS011;31681;48.982;8.394;2024-02-21T05:09:50;7.30;;;3.73;;
45970;SDS011;31681;48.982;8.394;2024-02-21T05:12:16;10.07;;;3.70;;
45970;SDS011;31681;48.982;8.394;2024-02-21T05:14:41;7.73;;;3.70;;
45970;SDS011;31681;48.982;8.394;2024-02-21T05:17:07;11.80;;;4.07;;
45970;SDS011;31681;48.982;8.394;2024-02-21T05:19:32;13.07;;;3.77;;
45970;SDS011;31681;48.982;8.394;2024-02-21T05:21:59;10.97;;;5.10;;
45970;SDS011;31681;48.982;8.394;2024-02-21T05:24:25;21.33;;;9.90;;
45970;SDS011;31681;48.982;8.394;2024-02-21T05:26:50;18.23;;;7.27;;
45970;SDS011;31681;48.982;8.394;2024-02-21T05:29:16;16.33;;;7.53;;
45970;SDS011;31681;48.982;8.394;2024-02-21T05:34:16;9.83;;;3.80;;
45970;SDS011;31681;48.982;8.394;2024-02-21T05:36:41;13.27;;;4.00;;
45970;SDS011;31681;48.982;8.394;2024-02-21T05:39:06;8.30;;;4.07;;
45970;SDS011;31681;48.982;8.394;2024-02-21T05:41:32;12.10;;;4.40;;
45970;SDS011;31681;48.982;8.394;2024-02-21T05:43:57;11.20;;;3.83;;
45970;SDS011;31681;48.982;8.394;2024-02-21T05:46:22;8.10;;;3.47;;
45970;SDS011;31681;48.982;8.394;2024-02-21T05:48:48;7.67;;;3.80;;
45970;SDS011;31681;48.982;8.394;2024-02-21T05:51:13;13.67;;;4.63;;
45970;SDS011;31681;48.982;8.394;2024-02-21T05:53:38;11.57;;;4.93;;
45970;SDS011;31681;48.982;8.394;2024-02-21T05:56:10;18.00;;;8.97;;
45970;SDS011;31681;48.982;8.394;2024-02-21T05:58:35;16.43;;;9.47;;
45970;SDS011;31681;48.982;8.394;2024-02-21T06:01:00;16.93;;;8.00;;
45970;SDS011;31681;48.982;8.394;2024-02-21T06:03:28;13.40;;;6.23;;
45970;SDS011;31681;48.982;8.394;2024-02-21T06:05:54;11.83;;;4.70;;
45970;SDS011;31681;48.982;8.394;2024-02-21T06:08:19;11.73;;;5.47;;
45970;SDS011;31681;48.982;8.394;2024-02-21T06:10:45;12.27;;;5.30;;
45970;SDS011;31681;48.982;8.394;2024-02-21T06:13:10;10.73;;;5.23;;
45970;SDS011;31681;48.982;8.394;2024-02-21T06:15:36;6.03;;;4.20;;
45970;SDS011;31681;48.982;8.394;2024-02-21T06:18:01;8.67;;;4.13;;
45970;SDS011;31681;48.982;8.394;2024-02-21T06:20:27;9.90;;;3.77;;
45970;SDS011;31681;48.982;8.394;2024-02-21T06:22:53;7.00;;;4.30;;
45970;SDS011;31681;48.982;8.394;2024-02-21T06:25:18;8.13;;;4.20;;
45970;SDS011;31681;48.982;8.394;2024-02-21T06:27:43;8.67;;;3.80;;
45970;SDS011;31681;48.982;8.394;2024-02-21T06:30:09;7.53;;;3.73;;
45970;SDS011;31681;48.982;8.394;2024-02-21T06:32:35;13.30;;;4.30;;
45970;SDS011;31681;48.982;8.394;2024-02-21T06:35:00;7.67;;;3.90;;
45970;SDS011;31681;48.982;8.394;2024-02-21T06:37:27;8.30;;;3.70;;
45970;SDS011;31681;48.982;8.394;2024-02-21T06:39:52;8.43;;;3.90;;
45970;SDS011;31681;48.982;8.394;2024-02-21T06:42:17;10.00;;;4.10;;
45970;SDS011;31681;48.982;8.394;2024-02-21T06:44:44;6.73;;;3.40;;
45970;SDS011;31681;48.982;8.394;2024-02-21T06:47:09;10.63;;;4.57;;
45970;SDS011;31681;48.982;8.394;2024-02-21T06:49:34;9.73;;;4.40;;
45970;SDS011;31681;48.982;8.394;2024-02-21T06:52:02;9.17;;;4.13;;
45970;SDS011;31681;48.982;8.394;2024-02-21T06:54:27;9.10;;;4.03;;
45970;SDS011;31681;48.982;8.394;2024-02-21T06:56:53;10.03;;;4.43;;
45970;SDS011;31681;48.982;8.394;2024-02-21T06:59:18;8.30;;;4.00;;
45970;SDS011;31681;48.982;8.394;2024-02-21T07:01:47;8.97;;;4.33;;
45970;SDS011;31681;48.982;8.394;2024-02-21T07:04:13;6.63;;;3.90;;
45970;SDS011;31681;48.982;8.394;2024-02-21T07:06:38;8.93;;;4.23;;
45970;SDS011;31681;48.982;8.394;2024-02-21T07:09:04;8.47;;;4.30;;
45970;SDS011;31681;48.982;8.394;2024-02-21T07:11:29;9.30;;;4.20;;
45970;SDS011;31681;48.982;8.394;2024-02-21T07:13:55;7.57;;;4.00;;
45970;SDS011;31681;48.982;8.394;2024-02-21T07:16:20;10.60;;;3.80;;
45970;SDS011;31681;48.982;8.394;2024-02-21T07:18:45;11.10;;;3.90;;
45970;SDS011;31681;48.982;8.394;2024-02-21T07:21:11;7.43;;;3.57;;
45970;SDS011;31681;48.982;8.394;2024-02-21T07:23:40;8.30;;;3.80;;
45970;SDS011;31681;48.982;8.394;2024-02-21T07:26:05;8.53;;;3.77;;
45970;SDS011;31681;48.982;8.394;2024-02-21T07:28:30;6.53;;;3.70;;
45970;SDS011;31681;48.982;8.394;2024-02-21T07:30:56;7.60;;;3.90;;
45970;SDS011;31681;48.982;8.394;2024-02-21T07:33:21;9.83;;;3.97;;
45970;SDS011;31681;48.982;8.394;2024-02-21T07:35:46;10.63;;;4.00;;
45970;SDS011;31681;48.982;8.394;2024-02-21T07:38:12;8.97;;;3.70;;
45970;SDS011;31681;48.982;8.394;2024-02-21T07:40:37;6.80;;;3.70;;
45970;SDS011;31681;48.982;8.394;2024-02-21T07:43:03;9.83;;;3.37;;
45970;SDS011;31681;48.982;8.394;2024-02-21T07:45:28;9.60;;;3.67;;
45970;SDS011;31681;48.982;8.394;2024-02-21T07:47:53;9.30;;;3.30;;
45970;SDS011;31681;48.982;8.394;2024-02-21T07:50:19;8.77;;;3.13;;
45970;SDS011;31681;48.982;8.394;2024-02-21T07:52:44;6.67;;;3.40;;
45970;SDS011;31681;48.982;8.394;2024-02-21T07:55:09;8.53;;;3.57;;
45970;SDS011;31681;48.982;8.394;2024-02-21T07:57:38;11.57;;;3.40;;
45970;SDS011;31681;48.982;8.394;2024-02-21T08:00:03;11.60;;;3.23;;
45970;SDS011;31681;48.982;8.394;2024-02-21T08:02:37;8.37;;;2.70;;
45970;SDS011;31681;48.982;8.394;2024-02-21T08:05:03;7.40;;;2.97;;
45970;SDS011;31681;48.982;8.394;2024-02-21T08:07:28;9.90;;;3.33;;
45970;SDS011;31681;48.982;8.394;2024-02-21T08:09:54;7.33;;;3.37;;
45970;SDS011;31681;48.982;8.394;2024-02-21T08:12:19;8.93;;;2.97;;
45970;SDS011;31681;48.982;8.394;2024-02-21T08:14:44;6.73;;;3.67;;
45970;SDS011;31681;48.982;8.394;2024-02-21T08:17:10;8.97;;;3.50;;
45970;SDS011;31681;48.982;8.394;2024-02-21T08:19:36;11.53;;;3.37;;
45970;SDS011;31681;48.982;8.394;2024-02-21T08:22:01;9.83;;;3.67;;
45970;SDS011;31681;48.982;8.394;2024-02-21T08:24:26;9.30;;;3.67;;
45970;SDS011;31681;48.982;8.394;2024-02-21T08:26:52;9.30;;;3.57;;
45970;SDS011;31681;48.982;8.394;2024-02-21T08:29:17;8.40;;;3.60;;
45970;SDS011;31681;48.982;8.394;2024-02-21T08:31:42;9.40;;;3.23;;
45970;SDS011;31681;48.982;8.394;2024-02-21T08:34:08;6.70;;;3.33;;
45970;SDS011;31681;48.982;8.394;2024-02-21T08:36:33;9.70;;;4.00;;
45970;SDS011;31681;48.982;8.394;2024-02-21T08:38:59;6.03;;;3.70;;
45970;SDS011;31681;48.982;8.394;2024-02-21T08:41:25;9.37;;;3.57;;
45970;SDS011;31681;48.982;8.394;2024-02-21T08:43:54;9.57;;;3.53;;
45970;SDS011;31681;48.982;8.394;2024-02-21T08:46:22;6.90;;;3.53;;
45970;SDS011;31681;48.982;8.394;2024-02-21T08:48:49;9.63;;;3.63;;
45970;SDS011;31681;48.982;8.394;2024-02-21T08:51:14;4.77;;;3.10;;
45970;SDS011;31681;48.982;8.394;2024-02-21T08:53:39;10.37;;;3.77;;
45970;SDS011;31681;48.982;8.394;2024-02-21T08:56:05;14.13;;;3.63;;
45970;SDS011;31681;48.982;8.394;2024-02-21T08:58:30;7.97;;;3.83;;
45970;SDS011;31681;48.982;8.394;2024-02-21T09:00:56;9.20;;;3.53;;
45970;SDS011;31681;48.982;8.394;2024-02-21T09:03:22;9.17;;;3.47;;
45970;SDS011;31681;48.982;8.394;2024-02-21T09:05:48;9.83;;;3.73;;
45970;SDS011;31681;48.982;8.394;2024-02-21T09:08:14;10.93;;;3.50;;
45970;SDS011;31681;48.982;8.394;2024-02-21T09:10:39;8.47;;;2.83;;
45970;SDS011;31681;48.982;8.394;2024-02-21T09:13:05;11.27;;;3.60;;
45970;SDS011;31681;48.982;8.394;2024-02-21T09:15:31;6.28;;;3.40;;
45970;SDS011;31681;48.982;8.394;2024-02-21T09:17:56;9.77;;;3.08;;
45970;SDS011;31681;48.982;8.394;2024-02-21T09:20:22;9.55;;;3.47;;
45970;SDS011;31681;48.982;8.394;2024-02-21T09:22:47;9.13;;;3.50;;
45970;SDS011;31681;48.982;8.394;2024-02-21T09:25:12;9.10;;;3.03;;
45970;SDS011;31681;48.982;8.394;2024-02-21T09:27:39;8.07;;;3.03;;
45970;SDS011;31681;48.982;8.394;2024-02-21T09:30:05;8.40;;;2.88;;
45970;SDS011;31681;48.982;8.394;2024-02-21T09:32:31;6.45;;;3.10;;
45970;SDS011;31681;48.982;8.394;2024-02-21T09:34:57;6.65;;;2.67;;
45970;SDS011;31681;48.982;8.394;2024-02-21T09:37:22;6.90;;;3.13;;
45970;SDS011;31681;48.982;8.394;2024-02-21T09:39:48;11.10;;;2.88;;
45970;SDS011;31681;48.982;8.394;2024-02-21T09:42:13;5.20;;;3.03;;
45970;SDS011;31681;48.982;8.394;2024-02-21T09:44:39;12.07;;;3.30;;
45970;SDS011;31681;48.982;8.394;2024-02-21T09:47:13;6.80;;;2.80;;
45970;SDS011;31681;48.982;8.394;2024-02-21T09:49:42;5.10;;;2.75;;
45970;SDS011;31681;48.982;8.394;2024-02-21T09:52:09;8.82;;;2.83;;
45970;SDS011;31681;48.982;8.394;2024-02-21T09:54:37;8.75;;;2.83;;
45970;SDS011;31681;48.982;8.394;2024-02-21T09:57:03;6.20;;;2.75;;
45970;SDS011;31681;48.982;8.394;2024-02-21T09:59:30;6.43;;;3.05;;
45970;SDS011;31681;48.982;8.394;2024-02-21T10:01:56;9.32;;;2.80;;
45970;SDS011;31681;48.982;8.394;2024-02-21T10:04:21;8.32;;;2.92;;
45970;SDS011;31681;48.982;8.394;2024-02-21T10:06:46;5.65;;;3.10;;
45970;SDS011;31681;48.982;8.394;2024-02-21T10:11:48;6.75;;;2.65;;
45970;SDS011;31681;48.982;8.394;2024-02-21T10:14:14;6.85;;;3.03;;
45970;SDS011;31681;48.982;8.394;2024-02-21T10:16:40;10.65;;;3.22;;
45970;SDS011;31681;48.982;8.394;2024-02-21T10:19:06;5.30;;;2.47;;
45970;SDS011;31681;48.982;8.394;2024-02-21T10:21:31;5.05;;;2.40;;
45970;SDS011;31681;48.982;8.394;2024-02-21T10:23:56;8.52;;;2.72;;
45970;SDS011;31681;48.982;8.394;2024-02-21T10:26:22;8.68;;;3.28;;
45970;SDS011;31681;48.982;8.394;2024-02-21T10:28:47;7.43;;;3.08;;
45970;SDS011;31681;48.982;8.394;2024-02-21T10:31:31;5.50;;;2.63;;
45970;SDS011;31681;48.982;8.394;2024-02-21T10:33:57;8.50;;;2.50;;
45970;SDS011;31681;48.982;8.394;2024-02-21T10:36:23;4.47;;;2.30;;
45970;SDS011;31681;48.982;8.394;2024-02-21T10:38:49;7.43;;;2.65;;
45970;SDS011;31681;48.982;8.394;2024-02-21T10:41:15;5.68;;;2.47;;
45970;SDS011;31681;48.982;8.394;2024-02-21T10:43:43;10.18;;;2.85;;
45970;SDS011;31681;48.982;8.394;2024-02-21T10:46:11;4.05;;;2.75;;
45970;SDS011;31681;48.982;8.394;2024-02-21T10:48:47;6.82;;;2.40;;
45970;SDS011;31681;48.982;8.394;2024-02-21T10:51:19;7.13;;;2.60;;
45970;SDS011;31681;48.982;8.394;2024-02-21T10:56:21;7.63;;;2.65;;
45970;SDS011;31681;48.982;8.394;2024-02-21T10:58:47;8.85;;;2.33;;
45970;SDS011;31681;48.982;8.394;2024-02-21T11:01:13;7.22;;;2.08;;
45970;SDS011;31681;48.982;8.394;2024-02-21T11:03:41;5.70;;;1.95;;
45970;SDS011;31681;48.982;8.394;2024-02-21T11:06:06;7.85;;;2.40;;
45970;SDS011;31681;48.982;8.394;2024-02-21T11:08:33;5.78;;;2.38;;
45970;SDS011;31681;48.982;8.394;2024-02-21T11:10:59;7.28;;;2.08;;
45970;SDS011;31681;48.982;8.394;2024-02-21T11:13:34;3.65;;;1.90;;
45970;SDS011;31681;48.982;8.394;2024-02-21T11:16:07;7.13;;;2.28;;
45970;SDS011;31681;48.982;8.394;2024-02-21T11:18:33;5.72;;;1.77;;
45970;SDS011;31681;48.982;8.394;2024-02-21T11:20:58;7.70;;;2.03;;
45970;SDS011;31681;48.982;8.394;2024-02-21T11:23:24;7.18;;;2.38;;
45970;SDS011;31681;48.982;8.394;2024-02-21T11:25:49;7.82;;;2.33;;
45970;SDS011;31681;48.982;8.394;2024-02-21T11:28:15;4.43;;;1.83;;
45970;SDS011;31681;48.982;8.394;2024-02-21T11:30:50;8.23;;;2.42;;
45970;SDS011;31681;48.982;8.394;2024-02-21T11:33:16;5.78;;;1.77;;
45970;SDS011;31681;48.982;8.394;2024-02-21T11:35:41;4.75;;;1.90;;
45970;SDS011;31681;48.982;8.394;2024-02-21T11:38:07;6.57;;;1.83;;
45970;SDS011;31681;48.982;8.394;2024-02-21T11:40:33;5.45;;;1.80;;
45970;SDS011;31681;48.982;8.394;2024-02-21T11:42:59;4.43;;;1.83;;
45970;SDS011;31681;48.982;8.394;2024-02-21T11:45:25;9.68;;;2.05;;
45970;SDS011;31681;48.982;8.394;2024-02-21T11:47:51;5.13;;;1.60;;
45970;SDS011;31681;48.982;8.394;2024-02-21T11:50:16;7.10;;;2.08;;
45970;SDS011;31681;48.982;8.394;2024-02-21T11:52:42;4.85;;;1.70;;
45970;SDS011;31681;48.982;8.394;2024-02-21T11:55:07;5.90;;;1.88;;
45970;SDS011;31681;48.982;8.394;2024-02-21T11:57:33;5.95;;;1.90;;
45970;SDS011;31681;48.982;8.394;2024-02-21T12:00:10;5.40;;;1.70;;
45970;SDS011;31681;48.982;8.394;2024-02-21T12:02:35;6.60;;;1.60;;
45970;SDS011;31681;48.982;8.394;2024-02-21T12:05:01;4.78;;;1.50;;
45970;SDS011;31681;48.982;8.394;2024-02-21T12:07:26;4.53;;;1.90;;
45970;SDS011;31681;48.982;8.394;2024-02-21T12:09:53;4.22;;;1.60;;
45970;SDS011;31681;48.982;8.394;2024-02-21T12:12:22;5.78;;;1.90;;
45970;SDS011;31681;48.982;8.394;2024-02-21T12:14:53;5.70;;;1.80;;
45970;SDS011;31681;48.982;8.394;2024-02-21T12:17:19;5.18;;;1.60;;
45970;SDS011;31681;48.982;8.394;2024-02-21T12:19:44;8.30;;;2.20;;
45970;SDS011;31681;48.982;8.394;2024-02-21T12:22:15;5.40;;;1.80;;
45970;SDS011;31681;48.982;8.394;2024-02-21T12:24:41;7.10;;;2.38;;
45970;SDS011;31681;48.982;8.394;2024-02-21T12:27:12;4.47;;;2.20;;
45970;SDS011;31681;48.982;8.394;2024-02-21T12:29:37;4.53;;;1.80;;
45970;SDS011;31681;48.982;8.394;2024-02-21T12:32:03;8.07;;;2.20;;
45970;SDS011;31681;48.982;8.394;2024-02-21T12:34:29;5.72;;;2.20;;
45970;SDS011;31681;48.982;8.394;2024-02-21T12:36:58;7.50;;;2.00;;
45970;SDS011;31681;48.982;8.394;2024-02-21T12:39:23;6.53;;;1.88;;
45970;SDS011;31681;48.982;8.394;2024-02-21T12:41:49;7.45;;;1.98;;
45970;SDS011;31681;48.982;8.394;2024-02-21T12:44:14;6.78;;;2.28;;
45970;SDS011;31681;48.982;8.394;2024-02-21T12:46:41;5.22;;;2.10;;
45970;SDS011;31681;48.982;8.394;2024-02-21T12:49:06;7.25;;;2.17;;
45970;SDS011;31681;48.982;8.394;2024-02-21T12:51:35;5.20;;;2.00;;
45970;SDS011;31681;48.982;8.394;2024-02-21T12:54:01;5.90;;;2.00;;
45970;SDS011;31681;48.982;8.394;2024-02-21T12:56:28;6.18;;;1.90;;
45970;SDS011;31681;48.982;8.394;2024-02-21T12:58:53;5.95;;;1.98;;
45970;SDS011;31681;48.982;8.394;2024-02-21T13:01:19;7.82;;;2.28;;
45970;SDS011;31681;48.982;8.394;2024-02-21T13:03:44;5.07;;;2.17;;
45970;SDS011;31681;48.982;8.394;2024-02-21T13:06:11;7.28;;;2.22;;
45970;SDS011;31681;48.982;8.394;2024-02-21T13:08:37;7.03;;;2.28;;
45970;SDS011;31681;48.982;8.394;2024-02-21T13:11:03;3.85;;;1.80;;
45970;SDS011;31681;48.982;8.394;2024-02-21T13:13:29;7.18;;;2.10;;
45970;SDS011;31681;48.982;8.394;2024-02-21T13:15:54;5.05;;;1.77;;
45970;SDS011;31681;48.982;8.394;2024-02-21T13:18:19;8.30;;;2.30;;
45970;SDS011;31681;48.982;8.394;2024-02-21T13:20:45;4.43;;;1.60;;
45970;SDS011;31681;48.982;8.394;2024-02-21T13:23:10;3.08;;;1.60;;
45970;SDS011;31681;48.982;8.394;2024-02-21T13:25:35;6.45;;;1.85;;
45970;SDS011;31681;48.982;8.394;2024-02-21T13:28:01;7.72;;;2.05;;
45970;SDS011;31681;48.982;8.394;2024-02-21T13:30:28;4.18;;;1.80;;
45970;SDS011;31681;48.982;8.394;2024-02-21T13:32:53;4.22;;;1.90;;
45970;SDS011;31681;48.982;8.394;2024-02-21T13:35:19;3.67;;;2.00;;
45970;SDS011;31681;48.982;8.394;2024-02-21T13:37:45;6.53;;;2.33;;
45970;SDS011;31681;48.982;8.394;2024-02-21T13:40:11;7.60;;;1.75;;
45970;SDS011;31681;48.982;8.394;2024-02-21T13:42:36;7.03;;;2.22;;
45970;SDS011;31681;48.982;8.394;2024-02-21T13:45:02;6.43;;;1.88;;
45970;SDS011;31681;48.982;8.394;2024-02-21T13:47:28;6.60;;;2.10;;
45970;SDS011;31681;48.982;8.394;2024-02-21T13:49:53;6.25;;;1.85;;
45970;SDS011;31681;48.982;8.394;2024-02-21T13:52:18;4.93;;;1.90;;
45970;SDS011;31681;48.982;8.394;2024-02-21T13:54:47;4.53;;;2.10;;
45970;SDS011;31681;48.982;8.394;2024-02-21T13:57:12;6.38;;;2.10;;
45970;SDS011;31681;48.982;8.394;2024-02-21T13:59:39;5.72;;;1.98;;
45970;SDS011;31681;48.982;8.394;2024-02-21T14:02:04;7.75;;;1.92;;
45970;SDS011;31681;48.982;8.394;2024-02-21T14:04:32;6.00;;;1.85;;
45970;SDS011;31681;48.982;8.394;2024-02-21T14:06:57;6.15;;;1.90;;
45970;SDS011;31681;48.982;8.394;2024-02-21T14:09:23;5.38;;;1.92;;
45970;SDS011;31681;48.982;8.394;2024-02-21T14:11:48;4.82;;;1.80;;
45970;SDS011;31681;48.982;8.394;2024-02-21T14:14:13;3.88;;;1.65;;
45970;SDS011;31681;48.982;8.394;2024-02-21T14:16:40;8.65;;;2.00;;
45970;SDS011;31681;48.982;8.394;2024-02-21T14:19:05;6.70;;;2.00;;
45970;SDS011;31681;48.982;8.394;2024-02-21T14:21:32;3.22;;;1.70;;
45970;SDS011;31681;48.982;8.394;2024-02-21T14:23:57;4.75;;;1.92;;
45970;SDS011;31681;48.982;8.394;2024-02-21T14:26:23;3.97;;;1.95;;
45970;SDS011;31681;48.982;8.394;2024-02-21T14:28:48;4.88;;;2.00;;
45970;SDS011;31681;48.982;8.394;2024-02-21T14:31:14;4.65;;;2.10;;
45970;SDS011;31681;48.982;8.394;2024-02-21T14:33:39;3.28;;;1.50;;
45970;SDS011;31681;48.982;8.394;2024-02-21T14:36:05;4.55;;;2.10;;
45970;SDS011;31681;48.982;8.394;2024-02-21T14:38:30;4.15;;;1.75;;
45970;SDS011;31681;48.982;8.394;2024-02-21T14:40:56;8.65;;;2.30;;
45970;SDS011;31681;48.982;8.394;2024-02-21T14:43:21;7.18;;;2.10;;